createdAt,value
2022-08-28T00:00:29.237Z,1.85
2022-08-28T00:02:58.425Z,1.80
2022-08-28T00:05:28.557Z,1.80
2022-08-28T00:07:57.116Z,1.80
2022-08-28T00:10:25.487Z,1.85
2022-08-28T00:12:54.972Z,1.85
2022-08-28T00:15:28.785Z,1.70
2022-08-28T00:17:56.991Z,1.75
2022-08-28T00:20:26.743Z,1.83
2022-08-28T00:22:55.531Z,1.83
2022-08-28T00:25:25.102Z,1.80
2022-08-28T00:27:52.556Z,1.77
2022-08-28T00:30:22.353Z,2.05
2022-08-28T00:32:51.919Z,1.90
2022-08-28T00:35:20.533Z,2.00
2022-08-28T00:37:48.458Z,2.00
2022-08-28T00:40:28.426Z,2.00
2022-08-28T00:42:59.054Z,1.90
2022-08-28T00:45:27.841Z,1.88
2022-08-28T00:47:57.121Z,1.90
2022-08-28T00:50:54.218Z,1.90
2022-08-28T00:53:30.163Z,1.90
2022-08-28T00:56:02.357Z,2.10
2022-08-28T00:58:32.480Z,1.92
2022-08-28T01:01:00.804Z,2.13
2022-08-28T01:03:30.935Z,1.70
2022-08-28T01:05:59.104Z,1.65
2022-08-28T01:08:30.250Z,1.80
2022-08-28T01:11:00.455Z,2.00
2022-08-28T01:13:29.984Z,1.73
2022-08-28T01:15:59.001Z,1.60
2022-08-28T01:18:28.865Z,1.70
2022-08-28T01:21:04.271Z,1.83
2022-08-28T01:23:51.176Z,1.80
2022-08-28T01:26:19.862Z,1.70
2022-08-28T01:28:48.234Z,1.90
2022-08-28T01:31:18.099Z,1.90
2022-08-28T01:33:48.301Z,1.60
2022-08-28T01:36:17.775Z,1.70
2022-08-28T01:38:50.869Z,1.77
2022-08-28T01:41:19.222Z,1.52
2022-08-28T01:43:47.105Z,1.92
2022-08-28T01:46:15.061Z,1.70
2022-08-28T01:48:44.918Z,1.90
2022-08-28T01:51:14.473Z,2.30
2022-08-28T01:53:45.183Z,2.20
2022-08-28T01:56:18.095Z,2.40
2022-08-28T01:58:47.979Z,2.33
2022-08-28T02:01:20.245Z,1.80
2022-08-28T02:03:48.640Z,2.10
2022-08-28T02:06:17.769Z,2.10
2022-08-28T02:08:46.701Z,2.30
2022-08-28T02:11:16.331Z,2.60
2022-08-28T02:13:45.364Z,2.03
2022-08-28T02:16:13.282Z,2.60
2022-08-28T02:18:41.757Z,2.47
2022-08-28T02:21:10.748Z,2.70
2022-08-28T02:23:39.820Z,2.38
2022-08-28T02:26:07.901Z,2.45
2022-08-28T02:28:37.417Z,2.78
2022-08-28T02:31:05.859Z,2.78
2022-08-28T02:33:33.936Z,2.38
2022-08-28T02:36:01.808Z,2.95
2022-08-28T02:38:29.872Z,2.83
2022-08-28T02:40:58.994Z,3.05
2022-08-28T02:43:27.457Z,2.70
2022-08-28T02:45:56.766Z,2.45
2022-08-28T02:48:25.044Z,2.88
2022-08-28T02:50:58.970Z,3.10
2022-08-28T02:53:27.099Z,3.13
2022-08-28T02:55:55.586Z,2.75
2022-08-28T02:58:23.684Z,3.22
2022-08-28T03:00:51.563Z,2.78
2022-08-28T03:03:21.263Z,2.95
2022-08-28T03:05:49.803Z,2.63
2022-08-28T03:08:18.559Z,2.60
2022-08-28T03:10:46.380Z,2.70
2022-08-28T03:13:26.676Z,2.80
2022-08-28T03:15:55.584Z,3.10
2022-08-28T03:18:26.398Z,2.90
2022-08-28T03:20:55.536Z,2.97
2022-08-28T03:23:30.190Z,3.10
2022-08-28T03:26:01.115Z,3.15
2022-08-28T03:28:32.133Z,3.33
2022-08-28T03:31:00.121Z,2.90
2022-08-28T03:33:29.769Z,3.30
2022-08-28T03:35:57.836Z,3.10
2022-08-28T03:38:25.936Z,2.95
2022-08-28T03:40:54.423Z,3.00
2022-08-28T03:43:24.241Z,3.20
2022-08-28T03:45:54.732Z,3.38
2022-08-28T03:48:24.380Z,3.67
2022-08-28T03:50:54.269Z,3.30
2022-08-28T03:53:24.528Z,3.50
2022-08-28T03:55:53.188Z,3.45
2022-08-28T03:58:21.158Z,3.40
2022-08-28T04:00:49.882Z,3.70
2022-08-28T04:03:18.360Z,3.40
2022-08-28T04:05:47.782Z,3.63
2022-08-28T04:08:18.428Z,4.00
2022-08-28T04:10:47.594Z,3.67
2022-08-28T04:13:17.431Z,3.83
2022-08-28T04:15:45.648Z,3.72
2022-08-28T04:18:13.862Z,3.38
2022-08-28T04:20:41.824Z,3.70
2022-08-28T04:23:15.719Z,3.70
2022-08-28T04:25:43.590Z,3.60
2022-08-28T04:28:11.690Z,4.00
2022-08-28T04:30:42.185Z,3.28
2022-08-28T04:33:10.526Z,3.67
2022-08-28T04:35:38.658Z,4.20
2022-08-28T04:38:06.584Z,3.53
2022-08-28T04:40:39.404Z,3.80
2022-08-28T04:43:07.475Z,3.28
2022-08-28T04:45:40.005Z,3.60
2022-08-28T04:48:13.799Z,3.60
2022-08-28T04:50:43.070Z,4.10
2022-08-28T04:53:11.752Z,3.60
2022-08-28T04:55:54.324Z,3.70
2022-08-28T04:58:24.214Z,3.30
2022-08-28T05:00:53.971Z,3.55
2022-08-28T05:03:22.194Z,4.07
2022-08-28T05:05:52.397Z,3.40
2022-08-28T05:08:22.113Z,3.70
2022-08-28T05:10:52.175Z,3.53
2022-08-28T05:13:20.728Z,4.10
2022-08-28T05:15:50.793Z,3.75
2022-08-28T05:18:22.015Z,3.67
2022-08-28T05:20:49.917Z,3.88
2022-08-28T05:23:18.115Z,3.88
2022-08-28T05:25:48.680Z,3.75
2022-08-28T05:28:18.469Z,4.47
2022-08-28T05:30:47.373Z,3.75
2022-08-28T05:33:15.950Z,4.28
2022-08-28T05:35:46.316Z,4.03
2022-08-28T05:38:16.345Z,3.78
2022-08-28T05:40:45.496Z,3.58
2022-08-28T05:43:15.068Z,3.83
2022-08-28T05:45:44.830Z,4.05
2022-08-28T05:48:16.193Z,4.55
2022-08-28T05:50:47.636Z,4.05
2022-08-28T05:53:17.348Z,4.07
2022-08-28T05:55:45.329Z,3.95
2022-08-28T05:58:33.449Z,4.57
2022-08-28T06:01:12.228Z,4.88
2022-08-28T06:03:40.814Z,5.00
2022-08-28T06:06:10.366Z,4.85
2022-08-28T06:08:39.291Z,5.65
2022-08-28T06:11:27.155Z,4.78
2022-08-28T06:13:59.488Z,5.25
2022-08-28T06:16:31.298Z,4.97
2022-08-28T06:19:00.583Z,5.93
2022-08-28T06:21:28.858Z,5.10
2022-08-28T06:23:57.039Z,5.95
2022-08-28T06:26:25.017Z,5.45
2022-08-28T06:28:53.544Z,5.70
2022-08-28T06:31:24.732Z,5.53
2022-08-28T06:33:56.006Z,5.50
2022-08-28T06:36:24.395Z,5.47
2022-08-28T06:38:52.405Z,5.63
2022-08-28T06:41:20.323Z,6.07
2022-08-28T06:43:48.460Z,5.80
2022-08-28T06:46:16.708Z,6.55
2022-08-28T06:48:44.607Z,6.47
2022-08-28T06:51:14.737Z,6.75
2022-08-28T06:53:44.633Z,6.72
2022-08-28T06:56:26.889Z,6.40
2022-08-28T06:58:56.700Z,7.03
2022-08-28T07:01:29.207Z,6.80
2022-08-28T07:04:00.394Z,7.63
2022-08-28T07:06:33.418Z,7.43
2022-08-28T07:09:01.381Z,7.70
2022-08-28T07:11:32.355Z,7.88
2022-08-28T07:14:01.761Z,9.57
2022-08-28T07:16:31.971Z,10.63
2022-08-28T07:19:02.683Z,10.52
2022-08-28T07:21:32.616Z,13.27
2022-08-28T07:24:05.523Z,10.93
2022-08-28T07:26:33.599Z,12.30
2022-08-28T07:29:10.912Z,11.55
2022-08-28T07:31:41.147Z,13.10
2022-08-28T07:34:10.469Z,13.73
2022-08-28T07:36:40.435Z,17.00
2022-08-28T07:39:10.558Z,18.08
2022-08-28T07:41:40.137Z,17.05
2022-08-28T07:44:25.854Z,18.60
2022-08-28T07:46:55.311Z,18.73
2022-08-28T07:49:23.875Z,18.90
2022-08-28T07:51:54.331Z,18.40
2022-08-28T07:54:22.662Z,17.13
2022-08-28T07:56:51.097Z,18.17
2022-08-28T07:59:19.334Z,17.85
2022-08-28T08:01:49.131Z,16.60
2022-08-28T08:04:19.891Z,16.23
2022-08-28T08:06:48.625Z,15.73
2022-08-28T08:09:19.529Z,16.63
2022-08-28T08:11:48.142Z,16.73
2022-08-28T08:14:18.225Z,16.23
2022-08-28T08:16:47.663Z,16.63
2022-08-28T08:19:16.745Z,17.50
2022-08-28T08:21:46.866Z,16.98
2022-08-28T08:24:20.667Z,18.70
2022-08-28T08:26:58.998Z,19.33
2022-08-28T08:29:31.215Z,16.58
2022-08-28T08:32:05.113Z,16.33
2022-08-28T08:34:33.788Z,14.93
2022-08-28T08:37:01.667Z,15.30
2022-08-28T08:39:29.544Z,14.15
2022-08-28T08:42:03.681Z,11.25
2022-08-28T08:44:35.304Z,10.65
2022-08-28T08:47:14.922Z,10.23
2022-08-28T08:49:50.524Z,10.70
2022-08-28T08:52:29.143Z,9.82
2022-08-28T08:55:07.144Z,9.82
2022-08-28T08:57:37.906Z,9.20
2022-08-28T09:00:12.277Z,8.98
2022-08-28T09:02:49.544Z,9.77
2022-08-28T09:05:21.834Z,10.27
2022-08-28T09:07:56.804Z,10.30
2022-08-28T09:10:26.709Z,10.18
2022-08-28T09:13:01.445Z,9.63
2022-08-28T09:15:32.959Z,10.75
2022-08-28T09:18:10.743Z,10.80
2022-08-28T09:20:39.186Z,11.95
2022-08-28T09:23:13.412Z,12.90
2022-08-28T09:25:52.192Z,13.23
2022-08-28T09:28:25.272Z,12.10
2022-08-28T09:31:01.291Z,12.50
2022-08-28T09:33:40.093Z,13.23
2022-08-28T09:36:30.053Z,13.85
2022-08-28T09:39:07.839Z,13.32
2022-08-28T09:41:56.976Z,13.27
2022-08-28T09:44:26.421Z,13.77
2022-08-28T09:46:54.336Z,13.35
2022-08-28T09:49:28.917Z,14.40
2022-08-28T09:52:01.558Z,13.23
2022-08-28T09:54:34.054Z,12.45
2022-08-28T09:57:03.442Z,12.83
2022-08-28T09:59:32.912Z,13.77
2022-08-28T10:02:19.657Z,12.82
2022-08-28T10:04:58.838Z,12.73
2022-08-28T10:07:34.168Z,12.27
2022-08-28T10:10:18.004Z,13.10
2022-08-28T10:13:00.240Z,12.38
2022-08-28T10:15:42.509Z,12.60
2022-08-28T10:18:34.133Z,12.55
2022-08-28T10:21:11.214Z,10.90
2022-08-28T10:23:50.037Z,11.32
2022-08-28T10:26:28.707Z,11.65
2022-08-28T10:29:08.828Z,11.73
2022-08-28T10:31:48.026Z,11.20
2022-08-28T10:34:32.922Z,10.55
2022-08-28T10:37:19.180Z,11.05
2022-08-28T10:39:54.903Z,11.10
2022-08-28T10:42:35.996Z,11.80
2022-08-28T10:45:10.870Z,11.57
2022-08-28T10:47:43.503Z,11.82
2022-08-28T10:50:18.288Z,10.48
2022-08-28T10:52:49.617Z,11.95
2022-08-28T10:55:22.486Z,11.40
2022-08-28T10:57:54.014Z,11.73
2022-08-28T11:00:24.517Z,11.30
2022-08-28T11:02:57.091Z,12.60
2022-08-28T11:05:27.908Z,13.20
2022-08-28T11:07:58.214Z,12.80
2022-08-28T11:10:50.300Z,12.68
2022-08-28T11:13:40.679Z,12.77
2022-08-28T11:16:13.550Z,13.52
2022-08-28T11:19:13.898Z,13.27
2022-08-28T11:21:47.070Z,13.38
2022-08-28T11:24:44.132Z,13.95
2022-08-28T11:27:29.308Z,13.73
2022-08-28T11:30:03.933Z,14.63
2022-08-28T11:32:47.028Z,15.45
2022-08-28T11:35:43.037Z,15.23
2022-08-28T11:38:11.296Z,16.02
2022-08-28T11:40:55.314Z,16.52
2022-08-28T11:43:36.773Z,16.77
2022-08-28T11:46:14.777Z,17.85
2022-08-28T11:48:49.817Z,18.02
2022-08-28T11:51:43.365Z,17.80
2022-08-28T11:54:23.982Z,17.13
2022-08-28T11:57:03.406Z,19.08
2022-08-28T11:59:53.704Z,19.90
2022-08-28T12:02:48.921Z,17.92
2022-08-28T12:05:45.205Z,18.98
2022-08-28T12:08:53.330Z,19.48
2022-08-28T12:11:53.819Z,19.38
2022-08-28T12:15:07.504Z,19.45
2022-08-28T12:17:57.246Z,19.45
2022-08-28T12:20:35.877Z,20.10
2022-08-28T12:23:25.081Z,20.27
2022-08-28T12:26:01.138Z,20.83
2022-08-28T12:28:31.645Z,20.77
2022-08-28T12:31:46.632Z,19.92
2022-08-28T12:34:23.623Z,19.33
2022-08-28T12:36:58.158Z,20.75
2022-08-28T12:39:26.251Z,20.25
2022-08-28T12:41:54.442Z,21.38
2022-08-28T12:44:26.343Z,20.17
2022-08-28T12:46:55.132Z,20.15
2022-08-28T12:49:34.567Z,18.95
2022-08-28T12:52:12.108Z,20.63
2022-08-28T12:54:45.452Z,20.20
2022-08-28T12:57:15.932Z,19.85
2022-08-28T12:59:45.934Z,19.48
2022-08-28T13:02:27.789Z,19.48
2022-08-28T13:04:59.267Z,19.30
2022-08-28T13:07:30.633Z,18.88
2022-08-28T13:10:03.437Z,18.80
2022-08-28T13:12:55.781Z,18.38
2022-08-28T13:15:45.796Z,18.00
2022-08-28T13:18:39.228Z,18.55
2022-08-28T13:21:33.708Z,18.67
2022-08-28T13:24:36.538Z,17.88
2022-08-28T13:27:08.775Z,17.55
2022-08-28T13:29:37.949Z,17.95
2022-08-28T13:32:09.070Z,16.65
2022-08-28T13:34:38.934Z,16.60
2022-08-28T13:37:42.984Z,16.70
2022-08-28T13:40:30.266Z,17.17
2022-08-28T13:43:03.370Z,17.67
2022-08-28T13:45:42.315Z,17.60
2022-08-28T13:48:12.396Z,16.55
2022-08-28T13:50:44.737Z,16.58
2022-08-28T13:53:17.942Z,17.05
2022-08-28T13:55:47.133Z,16.65
2022-08-28T13:58:15.735Z,16.30
2022-08-28T14:00:46.964Z,17.08
2022-08-28T14:03:33.509Z,14.98
2022-08-28T14:06:02.834Z,16.17
2022-08-28T14:08:32.325Z,15.95
2022-08-28T14:11:00.437Z,15.48
2022-08-28T14:13:28.456Z,14.80
2022-08-28T14:15:56.717Z,15.48
2022-08-28T14:18:25.196Z,16.05
2022-08-28T14:20:53.546Z,16.27
2022-08-28T14:23:21.510Z,17.42
2022-08-28T14:25:50.808Z,16.67
2022-08-28T14:28:19.257Z,16.65
2022-08-28T14:30:48.777Z,15.15
2022-08-28T14:33:20.491Z,15.95
2022-08-28T14:35:49.650Z,14.10
2022-08-28T14:38:17.918Z,14.23
2022-08-28T14:40:46.013Z,13.23
2022-08-28T14:43:15.638Z,13.07
2022-08-28T14:45:45.712Z,12.65
2022-08-28T14:48:14.343Z,12.45
2022-08-28T14:50:43.011Z,11.65
2022-08-28T14:53:11.603Z,12.05
2022-08-28T14:55:41.597Z,13.32
2022-08-28T14:58:09.525Z,13.60
2022-08-28T15:00:43.676Z,13.30
2022-08-28T15:03:12.357Z,13.88
2022-08-28T15:05:41.077Z,12.45
2022-08-28T15:08:09.457Z,12.63
2022-08-28T15:10:39.023Z,12.68
2022-08-28T15:13:08.669Z,11.90
2022-08-28T15:15:39.213Z,11.40
2022-08-28T15:18:10.172Z,11.90
2022-08-28T15:20:39.105Z,12.77
2022-08-28T15:23:07.234Z,12.13
2022-08-28T15:25:35.239Z,11.98
2022-08-28T15:28:03.415Z,13.05
2022-08-28T15:30:31.344Z,12.60
2022-08-28T15:32:59.268Z,11.57
2022-08-28T15:35:28.640Z,11.70
2022-08-28T15:37:56.561Z,9.55
2022-08-28T15:40:42.302Z,8.60
2022-08-28T15:43:10.218Z,8.45
2022-08-28T15:45:39.206Z,8.73
2022-08-28T15:48:07.970Z,7.38
2022-08-28T15:50:37.353Z,7.38
2022-08-28T15:53:06.681Z,6.47
2022-08-28T15:55:36.507Z,6.85
2022-08-28T15:58:05.316Z,6.88
2022-08-28T16:00:42.299Z,6.25
2022-08-28T16:03:10.384Z,6.60
2022-08-28T16:05:40.785Z,6.47
2022-08-28T16:08:10.737Z,6.32
2022-08-28T16:10:38.681Z,6.35
2022-08-28T16:13:06.905Z,6.55
2022-08-28T16:15:35.126Z,6.50
2022-08-28T16:18:03.237Z,6.68
2022-08-28T16:20:31.111Z,6.13
2022-08-28T16:23:00.328Z,6.35
2022-08-28T16:25:28.184Z,6.15
2022-08-28T16:27:56.386Z,6.38
2022-08-28T16:30:24.612Z,6.72
2022-08-28T16:32:52.649Z,7.05
2022-08-28T16:35:22.241Z,6.95
2022-08-28T16:37:50.123Z,7.03
2022-08-28T16:40:19.605Z,6.90
2022-08-28T16:42:51.295Z,8.10
2022-08-28T16:45:20.584Z,7.70
2022-08-28T16:47:49.075Z,7.55
2022-08-28T16:50:17.878Z,7.63
2022-08-28T16:52:46.538Z,7.93
2022-08-28T16:55:14.902Z,7.32
2022-08-28T16:57:44.965Z,7.40
2022-08-28T17:00:14.153Z,8.05
2022-08-28T17:02:43.459Z,9.15
2022-08-28T17:05:12.480Z,9.07
2022-08-28T17:07:40.882Z,9.65
2022-08-28T17:10:12.075Z,11.13
2022-08-28T17:12:40.062Z,11.10
2022-08-28T17:15:11.503Z,10.65
2022-08-28T17:17:40.069Z,10.70
2022-08-28T17:20:29.403Z,10.90
2022-08-28T17:22:56.583Z,11.23
2022-08-28T17:25:25.252Z,12.27
2022-08-28T17:27:53.553Z,11.90
2022-08-28T17:30:23.487Z,12.25
2022-08-28T17:32:51.707Z,12.50
2022-08-28T17:35:19.944Z,11.93
2022-08-28T17:37:47.898Z,12.75
2022-08-28T17:40:17.861Z,12.85
2022-08-28T17:42:47.997Z,11.68
2022-08-28T17:45:16.479Z,12.27
2022-08-28T17:47:45.728Z,13.18
2022-08-28T17:50:13.829Z,12.88
2022-08-28T17:52:41.713Z,11.85
2022-08-28T17:55:09.996Z,12.70
2022-08-28T17:57:38.109Z,13.00
2022-08-28T18:00:08.893Z,12.88
2022-08-28T18:02:40.670Z,13.27
2022-08-28T18:05:11.961Z,15.05
2022-08-28T18:07:39.885Z,14.05
2022-08-28T18:10:09.465Z,14.13
2022-08-28T18:12:37.807Z,14.40
2022-08-28T18:15:07.677Z,14.30
2022-08-28T18:17:37.254Z,16.23
2022-08-28T18:20:05.295Z,15.50
2022-08-28T18:22:34.601Z,15.40
2022-08-28T18:25:04.014Z,16.60
2022-08-28T18:27:34.290Z,16.98
2022-08-28T18:30:02.547Z,15.32
2022-08-28T18:32:30.429Z,14.45
2022-08-28T18:34:58.389Z,14.27
2022-08-28T18:37:26.340Z,13.40
2022-08-28T18:39:55.542Z,15.02
2022-08-28T18:42:24.265Z,15.50
2022-08-28T18:44:52.192Z,14.10
2022-08-28T18:47:20.122Z,15.77
2022-08-28T18:49:48.134Z,14.93
2022-08-28T18:52:16.067Z,18.80
2022-08-28T18:54:43.993Z,18.25
2022-08-28T18:57:15.197Z,17.67
2022-08-28T18:59:43.072Z,17.80
2022-08-28T19:02:12.798Z,15.68
2022-08-28T19:04:42.609Z,16.60
2022-08-28T19:07:10.519Z,15.30
2022-08-28T19:09:38.461Z,19.88
2022-08-28T19:12:06.994Z,33.45
2022-08-28T19:14:36.920Z,41.97
2022-08-28T19:17:05.095Z,52.90
2022-08-28T19:19:33.442Z,35.72
2022-08-28T19:22:01.894Z,21.02
2022-08-28T19:24:31.122Z,17.40
2022-08-28T19:26:59.020Z,17.98
2022-08-28T19:29:27.766Z,21.65
2022-08-28T19:31:56.982Z,22.08
2022-08-28T19:34:24.929Z,24.38
2022-08-28T19:36:52.884Z,21.27
2022-08-28T19:39:20.780Z,22.08
2022-08-28T19:41:48.905Z,20.33
2022-08-28T19:44:16.761Z,19.80
2022-08-28T19:46:44.802Z,21.98
2022-08-28T19:49:14.174Z,22.77
2022-08-28T19:51:42.607Z,21.35
2022-08-28T19:54:13.984Z,21.00
2022-08-28T19:56:42.036Z,19.90
2022-08-28T19:59:10.515Z,20.05
2022-08-28T20:01:43.461Z,18.98
2022-08-28T20:04:17.423Z,18.73
2022-08-28T20:06:46.180Z,18.08
2022-08-28T20:09:16.036Z,18.67
2022-08-28T20:11:44.967Z,17.38
2022-08-28T20:14:13.320Z,18.00
2022-08-28T20:16:43.099Z,18.23
2022-08-28T20:19:13.686Z,18.08
2022-08-28T20:21:44.617Z,17.80
2022-08-28T20:24:14.745Z,18.75
2022-08-28T20:26:42.706Z,18.40
2022-08-28T20:29:12.156Z,17.02
2022-08-28T20:31:41.637Z,17.40
2022-08-28T20:34:10.277Z,16.40
2022-08-28T20:36:39.925Z,16.02
2022-08-28T20:39:09.319Z,15.63
2022-08-28T20:41:39.064Z,14.52
2022-08-28T20:44:07.790Z,15.25
2022-08-28T20:46:40.974Z,15.45
2022-08-28T20:49:10.194Z,14.55
2022-08-28T20:51:56.792Z,15.95
2022-08-28T20:54:27.741Z,16.63
2022-08-28T20:56:57.280Z,14.52
2022-08-28T20:59:28.809Z,14.20
2022-08-28T21:02:05.282Z,14.40
2022-08-28T21:04:36.263Z,15.43
2022-08-28T21:07:06.886Z,15.50
2022-08-28T21:10:04.362Z,14.73
2022-08-28T21:12:24.657Z,15.27
2022-08-28T21:14:53.267Z,16.05
2022-08-28T21:17:29.311Z,14.63
2022-08-28T21:19:59.982Z,14.50
2022-08-28T21:22:31.405Z,13.57
2022-08-28T21:24:59.434Z,14.13
2022-08-28T21:27:27.824Z,14.35
2022-08-28T21:29:56.628Z,14.73
2022-08-28T21:32:24.555Z,14.43
2022-08-28T21:34:52.719Z,15.02
2022-08-28T21:37:20.741Z,14.40
2022-08-28T21:39:49.991Z,13.88
2022-08-28T21:42:17.989Z,13.60
2022-08-28T21:44:51.441Z,14.63
2022-08-28T21:47:21.332Z,13.82
2022-08-28T21:49:50.317Z,14.25
2022-08-28T21:52:18.521Z,14.38
2022-08-28T21:54:46.544Z,14.40
2022-08-28T21:57:15.899Z,13.82
2022-08-28T21:59:44.004Z,13.13
2022-08-28T22:02:11.940Z,13.25
2022-08-28T22:04:39.973Z,14.07
2022-08-28T22:07:09.792Z,14.70
2022-08-28T22:09:37.714Z,14.68
2022-08-28T22:12:06.344Z,14.10
2022-08-28T22:14:35.936Z,13.90
2022-08-28T22:17:07.605Z,13.70
2022-08-28T22:19:38.883Z,13.82
2022-08-28T22:22:24.416Z,13.70
2022-08-28T22:24:52.361Z,13.60
2022-08-28T22:27:20.260Z,14.77
2022-08-28T22:29:49.654Z,14.25
2022-08-28T22:32:18.183Z,14.00
2022-08-28T22:34:47.696Z,14.40
2022-08-28T22:37:15.623Z,13.55
2022-08-28T22:39:43.775Z,13.50
2022-08-28T22:42:11.687Z,13.52
2022-08-28T22:44:39.757Z,13.25
2022-08-28T22:47:09.044Z,13.02
2022-08-28T22:49:39.475Z,13.30
2022-08-28T22:52:10.273Z,12.55
2022-08-28T22:54:38.777Z,13.50
2022-08-28T22:57:07.030Z,11.93
2022-08-28T22:59:35.799Z,13.88
2022-08-28T23:02:04.766Z,12.55
2022-08-28T23:04:34.334Z,12.23
2022-08-28T23:07:02.266Z,13.32
2022-08-28T23:09:30.162Z,12.50
2022-08-28T23:12:00.040Z,12.98
2022-08-28T23:14:28.071Z,12.85
2022-08-28T23:16:56.156Z,12.40
2022-08-28T23:19:24.201Z,12.95
2022-08-28T23:21:53.525Z,11.82
2022-08-28T23:24:21.379Z,11.98
2022-08-28T23:26:50.034Z,11.68
2022-08-28T23:29:17.968Z,12.02
2022-08-28T23:31:45.880Z,10.70
2022-08-28T23:34:15.925Z,10.70
2022-08-28T23:36:43.905Z,10.55
2022-08-28T23:39:13.260Z,10.95
2022-08-28T23:41:41.362Z,11.68
2022-08-28T23:44:10.036Z,11.02
2022-08-28T23:46:41.100Z,11.77
2022-08-28T23:49:10.620Z,11.85
2022-08-28T23:51:38.984Z,11.90
2022-08-28T23:54:07.649Z,12.43
2022-08-28T23:56:37.287Z,12.05
2022-08-28T23:59:05.658Z,12.68
